Time;durP1;ratioP1;P1;durP2;ratioP2;P2;SDS_P1;SDS_P2;PMS_P1;PMS_P2;Temp;Humidity;BMP_temperature;BMP_pressure;BME280_temperature;BME280_humidity;BME280_pressure;Samples;Min_cycle;Max_cycle;Signal;HPM_P1;HPM_P2
2022/12/25 00:00:54;;;;;;;7.87;3.17;;;9.30;44.70;;;;;;4979293;28;20472;-68
2022/12/25 00:03:20;;;;;;;6.83;3.60;;;9.30;44.60;;;;;;4982920;28;20488;-70
2022/12/25 00:05:47;;;;;;;6.90;3.80;;;9.30;44.60;;;;;;4982100;28;20472;-69
2022/12/25 00:08:14;;;;;;;7.53;4.23;;;9.30;44.70;;;;;;4979998;28;20491;-68
2022/12/25 00:10:42;;;;;;;6.87;3.60;;;9.30;44.70;;;;;;4980221;28;20926;-69
2022/12/25 00:13:09;;;;;;;8.90;4.20;;;9.30;44.60;;;;;;4980765;28;21019;-68
2022/12/25 00:15:38;;;;;;;11.57;4.57;;;9.30;44.60;;;;;;4978522;28;20993;-70
2022/12/25 00:18:05;;;;;;;6.10;3.10;;;9.30;44.70;;;;;;4981497;28;20461;-70
2022/12/25 00:20:32;;;;;;;6.80;2.70;;;9.30;44.60;;;;;;4982116;28;20462;-70
2022/12/25 00:22:58;;;;;;;15.93;11.07;;;9.30;44.40;;;;;;4982222;28;20956;-70
2022/12/25 00:25:25;;;;;;;12.33;7.57;;;9.30;44.60;;;;;;4974091;28;20468;-70
2022/12/25 00:27:53;;;;;;;5.90;3.27;;;9.20;44.60;;;;;;4984997;28;20488;-70
2022/12/25 00:30:20;;;;;;;6.63;2.87;;;9.20;44.80;;;;;;4983834;28;20467;-70
2022/12/25 00:32:47;;;;;;;7.23;2.97;;;9.20;44.70;;;;;;4981008;28;20484;-70
2022/12/25 00:35:13;;;;;;;6.20;2.97;;;9.20;44.40;;;;;;4982254;28;20467;-70
2022/12/25 00:37:40;;;;;;;7.33;3.20;;;9.20;44.50;;;;;;4977338;28;20475;-70
2022/12/25 00:40:08;;;;;;;11.33;6.50;;;9.20;44.80;;;;;;4985074;28;20467;-70
2022/12/25 00:42:34;;;;;;;10.70;4.93;;;9.20;44.70;;;;;;4981773;28;20481;-70
2022/12/25 00:45:03;;;;;;;9.60;7.07;;;9.20;44.50;;;;;;4984688;28;20475;-72
2022/12/25 00:47:30;;;;;;;11.30;6.23;;;9.20;44.70;;;;;;4984401;28;20225;-70
2022/12/25 00:49:57;;;;;;;10.73;6.97;;;9.20;44.60;;;;;;4985714;28;20953;-70
2022/12/25 00:52:23;;;;;;;12.33;6.60;;;9.20;44.60;;;;;;4984335;28;20476;-70
2022/12/25 00:54:50;;;;;;;8.90;5.93;;;9.20;44.70;;;;;;4984386;28;21001;-72
2022/12/25 00:57:17;;;;;;;8.70;5.73;;;9.20;44.90;;;;;;4983833;28;20472;-72
2022/12/25 00:59:43;;;;;;;9.00;5.80;;;9.20;44.90;;;;;;4989965;28;20456;-70
2022/12/25 01:02:24;;;;;;;7.77;4.40;;;9.20;45.00;;;;;;4984206;28;20958;-69
2022/12/25 01:04:52;;;;;;;9.70;5.87;;;9.30;45.10;;;;;;4984239;28;20464;-70
2022/12/25 01:07:20;;;;;;;8.33;4.80;;;9.20;45.10;;;;;;4985528;28;20482;-70
2022/12/25 01:12:34;;;;;;;11.33;4.60;;;9.20;45.20;;;;;;4982080;28;20855;-70
2022/12/25 01:15:01;;;;;;;7.37;3.97;;;9.20;45.50;;;;;;4980478;28;20816;-69
2022/12/25 01:17:29;;;;;;;7.93;3.63;;;9.30;45.70;;;;;;4983225;28;20465;-70
2022/12/25 01:19:55;;;;;;;9.43;4.90;;;9.20;45.60;;;;;;4986175;28;20469;-69
2022/12/25 01:22:22;;;;;;;6.70;4.30;;;9.20;45.90;;;;;;4984630;28;20488;-71
2022/12/25 01:24:49;;;;;;;7.30;4.37;;;9.20;45.90;;;;;;4986785;28;20472;-70
2022/12/25 01:27:16;;;;;;;7.30;4.57;;;9.30;45.80;;;;;;4988547;28;20579;-70
2022/12/25 01:29:43;;;;;;;9.43;5.37;;;9.30;45.70;;;;;;4988749;28;20498;-69
2022/12/25 01:32:09;;;;;;;8.50;5.43;;;9.30;45.90;;;;;;4985119;28;20472;-70
2022/12/25 01:34:38;;;;;;;7.80;4.47;;;9.20;46.00;;;;;;4980528;28;20464;-70
2022/12/25 01:37:05;;;;;;;8.50;5.40;;;9.20;46.20;;;;;;4986375;28;20461;-70
2022/12/25 01:39:33;;;;;;;8.97;5.03;;;9.20;46.30;;;;;;4987985;28;20472;-70
2022/12/25 01:41:59;;;;;;;9.20;5.33;;;9.20;46.40;;;;;;4984272;28;20464;-70
2022/12/25 01:45:23;;;;;;;8.90;5.90;;;9.20;46.50;;;;;;4985769;28;20475;-69
2022/12/25 01:47:50;;;;;;;8.50;5.63;;;9.20;46.80;;;;;;4986443;28;20504;-69
2022/12/25 01:50:20;;;;;;;10.23;6.10;;;9.20;46.80;;;;;;4985881;28;20543;-71
2022/12/25 01:52:47;;;;;;;9.43;6.47;;;9.20;47.00;;;;;;4981002;28;21025;-71
2022/12/25 01:55:14;;;;;;;13.10;7.77;;;9.20;47.00;;;;;;4996289;23;21676;-69
2022/12/25 01:57:43;;;;;;;14.97;9.97;;;9.20;46.90;;;;;;4979488;28;20471;-72
2022/12/25 02:00:12;;;;;;;16.67;11.73;;;9.20;46.90;;;;;;4977761;28;20457;-71
2022/12/25 02:02:41;;;;;;;10.80;7.77;;;9.20;46.80;;;;;;4983551;28;20477;-70
2022/12/25 02:05:13;;;;;;;11.23;8.10;;;9.20;46.80;;;;;;4982095;28;20855;-70
2022/12/25 02:07:42;;;;;;;14.93;10.20;;;9.30;47.00;;;;;;4980554;28;20484;-70
2022/12/25 02:10:11;;;;;;;11.70;8.77;;;9.30;46.70;;;;;;4980235;28;20509;-70
2022/12/25 02:12:38;;;;;;;11.17;8.07;;;9.30;46.70;;;;;;4978633;28;20835;-70
2022/12/25 02:15:08;;;;;;;13.17;9.73;;;9.30;46.50;;;;;;4983362;28;21052;-69
2022/12/25 02:17:42;;;;;;;21.80;15.80;;;9.30;46.80;;;;;;4982173;28;20471;-70
2022/12/25 02:20:46;;;;;;;14.97;10.10;;;9.30;46.70;;;;;;4984101;28;20464;-72
2022/12/25 02:23:54;;;;;;;13.00;9.60;;;9.30;46.70;;;;;;4976726;28;20461;-70
2022/12/25 02:26:41;;;;;;;13.93;10.03;;;9.40;46.60;;;;;;4980437;28;20481;-70
2022/12/25 02:29:17;;;;;;;13.40;9.27;;;9.40;46.40;;;;;;4980098;28;20480;-70
2022/12/25 02:31:49;;;;;;;20.07;15.27;;;9.40;46.40;;;;;;4982953;28;20856;-70
2022/12/25 02:34:21;;;;;;;20.90;14.30;;;9.40;46.40;;;;;;4980412;28;20570;-70
2022/12/25 02:36:52;;;;;;;12.77;8.90;;;9.40;46.30;;;;;;4980058;28;21005;-70
2022/12/25 02:42:12;;;;;;;27.70;18.13;;;9.40;46.60;;;;;;4979876;28;20510;-71
2022/12/25 03:07:03;;;;;;;10.90;7.77;;;9.40;46.40;;;;;;4982894;28;20477;-72
2022/12/25 03:12:26;;;;;;;12.30;9.07;;;9.40;46.30;;;;;;4980160;28;20455;-71
2022/12/25 03:17:39;;;;;;;12.93;9.37;;;9.50;46.00;;;;;;4982228;28;20476;-71
2022/12/25 03:28:21;;;;;;;12.73;9.80;;;9.50;45.90;;;;;;4982691;28;20538;-71
2022/12/25 03:31:12;;;;;;;14.90;11.00;;;9.40;45.80;;;;;;4978903;28;20519;-70
2022/12/25 03:37:16;;;;;;;14.00;10.60;;;9.40;45.90;;;;;;4982802;28;20523;-71
2022/12/25 04:38:00;;;;;;;14.30;10.00;;;9.30;46.00;;;;;;4984332;28;20451;-70
2022/12/25 04:40:29;;;;;;;12.90;9.10;;;9.30;46.00;;;;;;4987980;28;20467;-70
2022/12/25 04:42:55;;;;;;;15.20;10.03;;;9.30;46.00;;;;;;4985533;28;20898;-70
2022/12/25 04:45:22;;;;;;;15.10;10.07;;;9.30;46.00;;;;;;4987307;28;20859;-70
2022/12/25 04:47:49;;;;;;;12.80;9.30;;;9.30;46.00;;;;;;4988113;28;20468;-70
2022/12/25 04:50:16;;;;;;;15.23;10.60;;;9.30;46.00;;;;;;4984601;28;20463;-70
2022/12/25 04:52:42;;;;;;;13.60;9.97;;;9.30;46.00;;;;;;4986848;28;20464;-70
2022/12/25 04:55:10;;;;;;;13.67;10.40;;;9.30;45.90;;;;;;4985946;28;20496;-71
2022/12/25 04:57:39;;;;;;;12.80;9.63;;;9.40;45.90;;;;;;4985519;28;20553;-70
2022/12/25 05:00:07;;;;;;;15.20;10.23;;;9.30;45.90;;;;;;4987674;28;20992;-70
2022/12/25 05:02:34;;;;;;;13.90;10.80;;;9.30;45.90;;;;;;4977892;28;20468;-70
2022/12/25 05:05:00;;;;;;;13.23;10.53;;;9.30;45.90;;;;;;4986286;28;20866;-69
2022/12/25 05:07:27;;;;;;;15.03;11.07;;;9.40;45.80;;;;;;4983957;28;21138;-70
2022/12/25 05:09:54;;;;;;;11.23;8.53;;;9.40;45.80;;;;;;4986897;28;20480;-70
2022/12/25 05:12:20;;;;;;;14.40;9.87;;;9.40;45.70;;;;;;4986589;28;20477;-70
2022/12/25 05:14:49;;;;;;;13.37;9.27;;;9.40;45.70;;;;;;4986182;28;20460;-70
2022/12/25 05:17:15;;;;;;;12.90;9.37;;;9.40;45.70;;;;;;4985580;28;20464;-70
2022/12/25 05:19:43;;;;;;;12.83;9.57;;;9.30;45.80;;;;;;4979051;28;20464;-70
2022/12/25 05:22:09;;;;;;;12.97;9.00;;;9.30;46.00;;;;;;4984354;28;20456;-70
2022/12/25 05:24:36;;;;;;;23.47;10.80;;;9.30;45.90;;;;;;4987428;28;20844;-71
2022/12/25 05:27:03;;;;;;;14.10;10.43;;;9.30;45.90;;;;;;4980538;28;20461;-70
2022/12/25 05:29:29;;;;;;;11.37;8.40;;;9.30;46.00;;;;;;4985556;28;21047;-70
2022/12/25 05:31:58;;;;;;;12.33;9.40;;;9.30;45.90;;;;;;4985492;28;20485;-71
2022/12/25 05:34:25;;;;;;;15.37;9.83;;;9.20;45.90;;;;;;4986641;28;20467;-70
2022/12/25 05:36:52;;;;;;;18.03;9.97;;;9.20;46.00;;;;;;4982066;28;20480;-69
2022/12/25 05:39:19;;;;;;;13.27;9.63;;;9.20;46.00;;;;;;4981249;28;20543;-70
2022/12/25 05:41:45;;;;;;;14.07;10.47;;;9.10;46.10;;;;;;4986961;28;21148;-71
2022/12/25 05:44:12;;;;;;;12.07;9.37;;;9.20;46.20;;;;;;4987598;28;20539;-70
2022/12/25 05:46:39;;;;;;;13.83;9.73;;;9.10;46.20;;;;;;4986033;28;20480;-70
2022/12/25 05:49:07;;;;;;;13.00;8.93;;;9.10;46.20;;;;;;4987316;28;21285;-72
2022/12/25 05:51:34;;;;;;;14.10;10.40;;;9.10;46.30;;;;;;4981942;28;20462;-70
2022/12/25 05:54:01;;;;;;;13.47;9.10;;;9.20;46.20;;;;;;4985801;28;20816;-72
2022/12/25 05:56:28;;;;;;;12.93;9.57;;;9.20;46.20;;;;;;4985786;28;20496;-72
2022/12/25 05:58:54;;;;;;;15.97;10.20;;;9.10;46.10;;;;;;4982181;28;20472;-72
2022/12/25 06:01:24;;;;;;;15.37;11.63;;;9.10;46.30;;;;;;4985439;28;20491;-71
2022/12/25 06:03:50;;;;;;;15.43;10.30;;;9.10;46.40;;;;;;4988671;28;20475;-71
2022/12/25 06:06:19;;;;;;;13.03;9.40;;;9.00;46.40;;;;;;4984567;28;20862;-71
2022/12/25 06:08:46;;;;;;;14.70;10.17;;;9.00;46.60;;;;;;4982720;28;20481;-72
2022/12/25 06:11:14;;;;;;;14.27;10.33;;;9.00;46.70;;;;;;4984014;28;20472;-71
2022/12/25 06:13:41;;;;;;;15.07;10.47;;;9.00;46.80;;;;;;4986784;28;20955;-71
2022/12/25 06:16:10;;;;;;;16.07;12.13;;;9.00;46.70;;;;;;4979291;28;20486;-71
2022/12/25 06:18:37;;;;;;;16.00;11.20;;;9.00;46.80;;;;;;4987186;28;20468;-71
2022/12/25 06:21:07;;;;;;;16.17;12.20;;;9.00;46.70;;;;;;4981987;28;20475;-71
2022/12/25 06:23:36;;;;;;;15.37;11.70;;;9.00;46.70;;;;;;4982036;28;20514;-71
2022/12/25 06:26:04;;;;;;;16.23;11.40;;;9.00;46.60;;;;;;4986311;28;20556;-71
2022/12/25 06:28:30;;;;;;;12.90;9.10;;;9.00;46.60;;;;;;4983637;28;20488;-71
2022/12/25 06:30:57;;;;;;;15.33;9.40;;;9.00;46.50;;;;;;4985755;28;20476;-71
2022/12/25 06:33:24;;;;;;;13.00;9.43;;;9.00;46.50;;;;;;4988418;28;20870;-71
2022/12/25 06:35:51;;;;;;;13.70;8.93;;;9.10;46.60;;;;;;4987449;28;20488;-71
2022/12/25 06:38:17;;;;;;;13.10;9.00;;;9.10;46.70;;;;;;4981030;28;20980;-71
2022/12/25 06:40:46;;;;;;;15.37;9.87;;;9.10;46.60;;;;;;4985874;28;20464;-70
2022/12/25 06:43:12;;;;;;;14.30;11.00;;;9.10;46.40;;;;;;4979447;28;20468;-71
2022/12/25 06:45:39;;;;;;;14.20;9.73;;;9.10;46.50;;;;;;4984332;28;20637;-72
2022/12/25 06:48:06;;;;;;;13.93;10.10;;;9.10;46.30;;;;;;4984311;28;20464;-71
2022/12/25 06:50:32;;;;;;;17.20;11.40;;;9.10;46.30;;;;;;4982819;28;20484;-71
2022/12/25 06:52:59;;;;;;;16.07;11.27;;;9.10;46.30;;;;;;4980668;28;20949;-71
2022/12/25 06:55:26;;;;;;;14.90;10.93;;;9.10;46.30;;;;;;4981871;28;20488;-71
2022/12/25 06:57:54;;;;;;;16.17;10.10;;;9.10;46.30;;;;;;4983099;28;20479;-71
2022/12/25 07:00:21;;;;;;;14.20;10.07;;;9.10;46.20;;;;;;4984325;28;20457;-70
2022/12/25 07:02:49;;;;;;;13.53;10.27;;;9.10;46.20;;;;;;4981171;28;20457;-71
2022/12/25 07:05:16;;;;;;;16.50;10.97;;;9.20;46.20;;;;;;4983996;28;20492;-70
2022/12/25 07:07:42;;;;;;;16.20;11.10;;;9.10;46.20;;;;;;4981312;28;20460;-72
2022/12/25 07:10:10;;;;;;;15.27;11.23;;;9.10;46.10;;;;;;4985167;28;21009;-72
2022/12/25 07:12:37;;;;;;;13.77;10.37;;;9.20;46.00;;;;;;4977789;28;20464;-70
2022/12/25 07:15:06;;;;;;;14.20;10.37;;;9.10;46.10;;;;;;4988157;28;20485;-70
2022/12/25 07:17:34;;;;;;;15.13;10.40;;;9.10;46.10;;;;;;4985461;28;20468;-70
2022/12/25 07:20:01;;;;;;;15.93;10.33;;;9.10;46.10;;;;;;4976203;28;20511;-70
2022/12/25 07:22:29;;;;;;;16.10;10.20;;;9.10;46.00;;;;;;4983957;28;20461;-70
2022/12/25 07:24:55;;;;;;;13.83;10.60;;;9.10;46.40;;;;;;4982939;28;20461;-70
2022/12/25 07:27:22;;;;;;;14.50;10.13;;;9.20;46.00;;;;;;4985726;28;20492;-70
2022/12/25 07:29:49;;;;;;;16.77;11.43;;;9.20;46.00;;;;;;4979435;28;20477;-71
2022/12/25 07:32:17;;;;;;;15.73;10.67;;;9.20;45.90;;;;;;4982956;28;20480;-70
2022/12/25 07:34:44;;;;;;;15.80;11.30;;;9.20;46.00;;;;;;4983219;28;20468;-70
2022/12/25 07:37:11;;;;;;;16.13;11.33;;;9.20;46.00;;;;;;4980094;28;20483;-71
2022/12/25 07:39:39;;;;;;;15.47;10.87;;;9.30;46.10;;;;;;4987430;28;20456;-70
2022/12/25 07:42:06;;;;;;;15.27;11.40;;;9.30;45.90;;;;;;4979560;28;20507;-70
2022/12/25 07:44:33;;;;;;;16.20;11.93;;;9.40;45.90;;;;;;4984448;28;20492;-71
2022/12/25 07:46:59;;;;;;;16.30;11.67;;;9.40;45.90;;;;;;4979960;28;20485;-70
2022/12/25 07:49:27;;;;;;;15.93;11.63;;;9.50;45.90;;;;;;4977760;28;20484;-70
2022/12/25 07:51:54;;;;;;;17.33;12.20;;;9.60;45.70;;;;;;4982583;28;20464;-71
2022/12/25 07:54:21;;;;;;;15.93;9.47;;;9.70;45.80;;;;;;4980429;28;20461;-70
2022/12/25 07:56:51;;;;;;;13.73;9.97;;;9.90;45.40;;;;;;4982153;28;20502;-71
2022/12/25 07:59:17;;;;;;;16.13;10.40;;;10.00;45.70;;;;;;4984202;28;20556;-70
2022/12/25 08:01:44;;;;;;;12.80;9.50;;;10.20;45.00;;;;;;4984964;28;20477;-70
2022/12/25 08:04:11;;;;;;;15.43;10.83;;;10.30;44.80;;;;;;4974633;28;20469;-70
2022/12/25 08:06:39;;;;;;;14.30;10.03;;;10.40;44.10;;;;;;4981652;28;20489;-70
2022/12/25 08:09:08;;;;;;;15.27;10.10;;;10.50;43.10;;;;;;4977579;28;20500;-71
2022/12/25 08:11:35;;;;;;;14.70;10.17;;;10.50;43.20;;;;;;4978262;28;20464;-70
2022/12/25 08:14:06;;;;;;;14.07;9.20;;;10.50;43.10;;;;;;4984849;28;20469;-70
2022/12/25 08:16:33;;;;;;;12.33;8.80;;;10.70;42.90;;;;;;4983194;28;20487;-70
2022/12/25 08:19:00;;;;;;;15.10;10.00;;;10.80;42.70;;;;;;4982934;28;20468;-68
2022/12/25 08:21:26;;;;;;;15.50;9.10;;;11.00;42.30;;;;;;4975385;28;20457;-65
2022/12/25 08:23:54;;;;;;;13.60;9.83;;;11.30;41.70;;;;;;4978761;28;20495;-65
2022/12/25 08:26:22;;;;;;;13.47;9.20;;;11.80;40.60;;;;;;4979444;28;20485;-68
2022/12/25 08:28:50;;;;;;;10.83;7.93;;;12.60;38.90;;;;;;4983495;28;20547;-70
2022/12/25 08:31:20;;;;;;;11.20;8.03;;;13.40;35.80;;;;;;4986760;23;20483;-60
2022/12/25 08:33:48;;;;;;;10.17;7.83;;;14.00;34.00;;;;;;4976085;28;20475;-60
2022/12/25 08:36:16;;;;;;;10.33;7.23;;;14.40;33.30;;;;;;4978007;28;20945;-62
2022/12/25 08:38:43;;;;;;;14.50;7.63;;;14.40;31.60;;;;;;4976711;28;20472;-61
2022/12/25 08:41:12;;;;;;;14.30;7.20;;;14.50;31.60;;;;;;4967938;28;20853;-61
2022/12/25 08:43:39;;;;;;;10.90;7.23;;;14.60;30.90;;;;;;4959485;28;20477;-61
2022/12/25 08:46:06;;;;;;;11.20;7.03;;;14.70;30.70;;;;;;4962909;28;20462;-62
2022/12/25 08:48:33;;;;;;;11.57;6.00;;;14.90;30.00;;;;;;4963807;28;20462;-62
2022/12/25 08:51:01;;;;;;;9.60;7.07;;;15.30;29.20;;;;;;4958662;28;20490;-62
2022/12/25 08:53:27;;;;;;;9.60;6.73;;;15.70;27.90;;;;;;4960175;28;20465;-62
2022/12/25 08:55:58;;;;;;;9.77;7.30;;;16.00;27.00;;;;;;4961567;28;20489;-62
2022/12/25 08:58:27;;;;;;;9.37;6.90;;;16.20;26.30;;;;;;4963852;28;20517;-61
2022/12/25 09:00:54;;;;;;;9.77;6.67;;;16.40;25.90;;;;;;4961427;28;20481;-61
2022/12/25 09:03:20;;;;;;;7.23;5.70;;;16.50;25.50;;;;;;4964859;28;20845;-62
2022/12/25 09:05:47;;;;;;;8.37;6.13;;;16.50;24.70;;;;;;4961161;28;20485;-62
2022/12/25 09:08:14;;;;;;;9.07;6.07;;;16.60;24.60;;;;;;4964984;28;20469;-61
2022/12/25 09:10:41;;;;;;;11.30;6.60;;;16.70;24.20;;;;;;4964584;28;20489;-62
2022/12/25 09:13:08;;;;;;;9.40;6.60;;;16.80;23.60;;;;;;4962645;28;20465;-61
2022/12/25 09:15:37;;;;;;;10.23;6.13;;;16.90;23.20;;;;;;4963189;28;20461;-61
2022/12/25 09:18:04;;;;;;;8.90;6.20;;;16.90;22.60;;;;;;4967499;28;20458;-61
2022/12/25 09:20:31;;;;;;;9.13;6.00;;;17.10;22.80;;;;;;4967424;28;20860;-62
2022/12/25 09:22:58;;;;;;;9.07;6.20;;;17.30;21.80;;;;;;4968160;28;20472;-62
2022/12/25 09:25:25;;;;;;;9.30;5.77;;;17.40;21.10;;;;;;4966190;28;20461;-61
2022/12/25 09:27:51;;;;;;;7.90;5.77;;;17.60;20.50;;;;;;4961931;28;20468;-62
2022/12/25 09:30:18;;;;;;;8.57;5.60;;;17.70;20.20;;;;;;4967252;28;20496;-62
2022/12/25 09:32:46;;;;;;;8.80;6.23;;;17.70;19.80;;;;;;4962498;28;20489;-62
2022/12/25 09:35:16;;;;;;;8.77;5.90;;;17.80;20.10;;;;;;4970888;28;20462;-62
2022/12/25 09:37:43;;;;;;;8.20;5.90;;;17.90;20.00;;;;;;4969465;28;20469;-63
2022/12/25 09:40:14;;;;;;;8.30;4.93;;;17.90;19.70;;;;;;4965656;28;20488;-62
2022/12/25 09:42:41;;;;;;;8.10;5.60;;;18.00;19.70;;;;;;4961093;28;20473;-60
2022/12/25 09:45:12;;;;;;;6.50;4.97;;;18.10;19.30;;;;;;4958188;28;20468;-64
2022/12/25 09:47:43;;;;;;;7.30;4.70;;;18.20;19.00;;;;;;4963430;28;20469;-66
2022/12/25 09:50:16;;;;;;;6.70;4.70;;;18.30;18.60;;;;;;4963102;28;20501;-66
2022/12/25 09:52:49;;;;;;;7.47;5.07;;;18.50;18.10;;;;;;4962089;28;20853;-66
2022/12/25 09:55:18;;;;;;;8.30;4.77;;;18.50;17.60;;;;;;4960817;28;20477;-65
2022/12/25 09:57:46;;;;;;;23.77;14.60;;;18.60;17.30;;;;;;4964112;28;20485;-67
2022/12/25 10:00:15;;;;;;;7.50;5.73;;;18.70;17.50;;;;;;4960498;28;20509;-65
2022/12/25 10:03:13;;;;;;;6.30;4.73;;;18.80;16.30;;;;;;4969358;28;20469;-65
2022/12/25 10:06:12;;;;;;;6.47;4.17;;;18.90;16.70;;;;;;4962782;28;20468;-62
2022/12/25 10:09:01;;;;;;;6.30;3.73;;;19.00;16.40;;;;;;4959602;28;20876;-64
2022/12/25 10:11:41;;;;;;;7.97;4.00;;;19.00;16.00;;;;;;4963722;28;20481;-65
2022/12/25 10:14:20;;;;;;;7.00;3.80;;;19.10;16.30;;;;;;4965924;28;20465;-65
2022/12/25 10:16:56;;;;;;;5.00;3.03;;;19.20;16.30;;;;;;4955834;28;21005;-61
2022/12/25 10:19:36;;;;;;;7.00;4.60;;;19.40;16.10;;;;;;4961404;28;20477;-68
2022/12/25 10:22:11;;;;;;;7.13;4.57;;;19.50;16.40;;;;;;4957709;28;20458;-70
2022/12/25 10:24:45;;;;;;;7.80;4.77;;;19.60;16.40;;;;;;4961361;28;20466;-63
2022/12/25 10:27:26;;;;;;;6.50;4.40;;;19.80;16.00;;;;;;4966587;28;20630;-62
2022/12/25 10:29:54;;;;;;;7.87;4.53;;;20.00;15.40;;;;;;4954477;28;20501;-62
2022/12/25 10:32:21;;;;;;;6.33;3.97;;;20.20;14.60;;;;;;4960264;28;22206;-62
2022/12/25 10:34:49;;;;;;;9.63;4.53;;;20.50;13.80;;;;;;4962859;28;20466;-62
2022/12/25 10:37:17;;;;;;;6.53;4.20;;;20.70;14.00;;;;;;4960794;28;20469;-64
2022/12/25 10:39:46;;;;;;;5.50;3.70;;;20.90;13.30;;;;;;4965031;28;21364;-63
2022/12/25 10:42:29;;;;;;;6.50;3.87;;;21.10;13.00;;;;;;4965143;28;20974;-65
2022/12/25 10:44:57;;;;;;;5.80;3.40;;;21.20;11.90;;;;;;4962233;28;20469;-63
2022/12/25 10:47:26;;;;;;;5.60;3.43;;;21.20;11.40;;;;;;4963809;28;20473;-66
2022/12/25 10:49:54;;;;;;;6.73;3.20;;;21.30;11.10;;;;;;4964867;28;20854;-67
2022/12/25 10:52:22;;;;;;;6.20;3.57;;;21.50;11.20;;;;;;4959200;28;20462;-68
2022/12/25 10:54:51;;;;;;;5.90;3.50;;;21.70;11.00;;;;;;4965406;28;20470;-64
2022/12/25 10:57:20;;;;;;;5.50;3.40;;;21.80;10.50;;;;;;4962475;28;20482;-67
2022/12/25 10:59:48;;;;;;;5.80;3.50;;;21.80;10.50;;;;;;4959839;28;20489;-64
2022/12/25 11:02:19;;;;;;;6.77;3.80;;;21.80;10.00;;;;;;4964667;28;21221;-70
2022/12/25 11:04:46;;;;;;;5.87;3.60;;;21.50;10.50;;;;;;4961125;28;20499;-68
2022/12/25 11:07:21;;;;;;;6.07;4.03;;;21.20;10.90;;;;;;4964261;28;20470;-64
2022/12/25 11:09:52;;;;;;;5.60;3.80;;;20.80;11.90;;;;;;4960734;28;20485;-65
2022/12/25 11:12:21;;;;;;;6.40;4.30;;;20.80;12.70;;;;;;4965568;28;20491;-64
2022/12/25 11:14:56;;;;;;;7.87;4.63;;;21.10;12.80;;;;;;4963072;28;20461;-70
2022/12/25 11:17:25;;;;;;;6.37;4.23;;;21.50;12.30;;;;;;4963129;28;20568;-65
2022/12/25 11:19:54;;;;;;;6.63;4.60;;;21.40;12.00;;;;;;4964391;28;20610;-67
2022/12/25 11:22:20;;;;;;;7.50;4.37;;;20.90;12.40;;;;;;4959233;28;20466;-65
2022/12/25 11:24:47;;;;;;;7.77;4.83;;;20.70;12.70;;;;;;4960405;28;20474;-67
2022/12/25 11:27:28;;;;;;;6.80;4.20;;;20.40;13.10;;;;;;4959540;28;20474;-62
2022/12/25 11:29:58;;;;;;;6.30;4.23;;;20.00;13.30;;;;;;4960193;28;20493;-70
2022/12/25 11:32:29;;;;;;;6.17;4.10;;;19.90;14.10;;;;;;4961041;28;20569;-68
2022/12/25 11:34:57;;;;;;;6.30;4.67;;;19.90;14.20;;;;;;4959009;28;20516;-68
2022/12/25 11:37:30;;;;;;;9.53;5.00;;;20.00;14.20;;;;;;4952804;28;20465;-69
2022/12/25 11:39:57;;;;;;;8.03;5.67;;;20.00;13.80;;;;;;4960730;28;20485;-65
2022/12/25 11:42:31;;;;;;;8.97;5.90;;;20.70;14.60;;;;;;4960278;28;20468;-66
2022/12/25 11:45:02;;;;;;;5.63;3.73;;;21.70;12.30;;;;;;4958384;28;20470;-67
2022/12/25 11:47:35;;;;;;;7.30;4.17;;;22.30;10.50;;;;;;4962672;28;20465;-63
2022/12/25 11:50:06;;;;;;;7.20;4.70;;;22.50;9.90;;;;;;4965983;28;21199;-64
2022/12/25 11:52:36;;;;;;;6.90;4.83;;;22.10;9.70;;;;;;4966446;28;20462;-63
2022/12/25 11:55:10;;;;;;;7.93;4.43;;;22.00;10.60;;;;;;4962390;28;20469;-64
2022/12/25 11:57:40;;;;;;;6.03;4.10;;;21.60;10.90;;;;;;4964684;28;20465;-62
2022/12/25 12:00:13;;;;;;;7.40;4.50;;;21.10;11.80;;;;;;4957107;28;21002;-62
2022/12/25 12:02:45;;;;;;;6.97;4.27;;;20.80;12.30;;;;;;4961338;28;20478;-63
2022/12/25 12:05:18;;;;;;;6.23;3.10;;;20.70;12.80;;;;;;4963163;28;20827;-63
2022/12/25 12:08:06;;;;;;;6.40;3.60;;;20.80;13.10;;;;;;4965140;28;20469;-63
2022/12/25 12:10:43;;;;;;;5.80;4.00;;;21.40;12.60;;;;;;4962680;28;20801;-63
2022/12/25 12:13:25;;;;;;;5.90;3.50;;;21.80;12.10;;;;;;4964275;28;20461;-63
2022/12/25 12:15:53;;;;;;;6.80;3.77;;;22.20;11.30;;;;;;4965951;28;20465;-63
2022/12/25 12:18:22;;;;;;;6.23;4.10;;;22.40;11.10;;;;;;4964752;28;20462;-64
2022/12/25 12:21:04;;;;;;;6.90;4.53;;;22.60;10.70;;;;;;4961640;28;20482;-64
2022/12/25 12:23:34;;;;;;;6.30;4.10;;;22.70;10.50;;;;;;4959854;28;20475;-63
2022/12/25 12:26:01;;;;;;;5.70;3.50;;;22.70;10.40;;;;;;4962102;28;20469;-64
2022/12/25 12:28:38;;;;;;;5.90;3.43;;;22.60;10.30;;;;;;4957355;28;20498;-63
2022/12/25 12:31:06;;;;;;;6.40;3.63;;;22.40;10.50;;;;;;4959991;28;20492;-64
2022/12/25 12:33:37;;;;;;;6.07;3.87;;;22.00;10.70;;;;;;4962219;28;20466;-64
2022/12/25 12:36:06;;;;;;;5.67;3.30;;;21.70;11.50;;;;;;4960015;28;20856;-64
2022/12/25 12:38:34;;;;;;;6.33;4.17;;;21.50;12.10;;;;;;4958539;28;20990;-63
2022/12/25 12:41:03;;;;;;;6.50;3.07;;;21.40;12.30;;;;;;4960658;28;20492;-63
2022/12/25 12:43:36;;;;;;;6.50;3.80;;;21.40;12.40;;;;;;4963929;28;20466;-65
2022/12/25 12:46:07;;;;;;;6.87;3.60;;;21.20;12.10;;;;;;4963787;28;20458;-66
2022/12/25 12:48:42;;;;;;;8.07;3.90;;;20.90;12.30;;;;;;4962384;28;20482;-67
2022/12/25 12:51:12;;;;;;;7.90;3.60;;;20.60;12.90;;;;;;4968055;28;20499;-67
2022/12/25 12:53:40;;;;;;;7.53;3.30;;;20.30;13.50;;;;;;4968332;28;20898;-67
2022/12/25 12:56:13;;;;;;;5.90;3.33;;;20.10;14.10;;;;;;4965882;28;20472;-67
2022/12/25 12:58:49;;;;;;;6.10;3.60;;;19.90;14.60;;;;;;4965158;28;20461;-67
2022/12/25 13:01:38;;;;;;;6.37;3.87;;;19.80;15.20;;;;;;4963675;28;20480;-67
2022/12/25 13:04:36;;;;;;;5.70;3.40;;;19.70;15.60;;;;;;4962247;28;20465;-67
2022/12/25 13:07:11;;;;;;;6.07;3.50;;;19.60;15.70;;;;;;4967405;28;20465;-67
2022/12/25 13:09:53;;;;;;;6.60;4.20;;;19.50;16.20;;;;;;4966416;28;21024;-66
2022/12/25 13:12:22;;;;;;;7.17;4.17;;;19.40;16.40;;;;;;4960367;28;20494;-66
2022/12/25 13:14:51;;;;;;;5.50;3.10;;;19.40;16.90;;;;;;4963412;28;20461;-66
2022/12/25 13:17:21;;;;;;;6.30;3.20;;;19.20;17.00;;;;;;4966271;28;20461;-66
2022/12/25 13:19:52;;;;;;;6.80;4.17;;;19.10;17.40;;;;;;4962027;28;20483;-66
2022/12/25 13:22:24;;;;;;;6.10;3.60;;;18.90;17.60;;;;;;4963321;28;20468;-67
2022/12/25 13:24:59;;;;;;;6.30;3.47;;;18.80;17.90;;;;;;4962965;28;20464;-67
2022/12/25 13:27:28;;;;;;;6.67;3.17;;;18.80;18.50;;;;;;4966535;28;20587;-66
2022/12/25 13:29:56;;;;;;;6.37;3.80;;;18.60;18.40;;;;;;4964793;28;20485;-66
2022/12/25 13:32:26;;;;;;;6.37;3.80;;;18.50;18.60;;;;;;4964630;28;20574;-67
2022/12/25 13:34:54;;;;;;;5.60;3.73;;;18.40;18.90;;;;;;4962356;28;20461;-66
2022/12/25 13:37:23;;;;;;;7.70;3.97;;;18.20;19.30;;;;;;4962534;28;20845;-67
2022/12/25 13:39:53;;;;;;;6.17;3.60;;;18.00;19.80;;;;;;4966339;28;20481;-67
2022/12/25 13:42:22;;;;;;;6.73;4.23;;;17.90;20.20;;;;;;4966845;28;20485;-66
2022/12/25 13:44:51;;;;;;;7.10;3.70;;;17.70;20.90;;;;;;4963425;28;20473;-66
2022/12/25 13:47:23;;;;;;;7.40;5.17;;;17.60;21.30;;;;;;4964279;28;20469;-65
2022/12/25 13:49:52;;;;;;;7.23;4.87;;;17.50;22.70;;;;;;4963488;28;20497;-67
2022/12/25 13:52:21;;;;;;;8.50;5.47;;;17.30;22.60;;;;;;4965776;28;20485;-67
2022/12/25 13:54:56;;;;;;;18.57;11.03;;;17.10;23.00;;;;;;4962433;28;20465;-67
2022/12/25 13:57:27;;;;;;;23.27;17.63;;;16.90;23.60;;;;;;4965564;28;20461;-67
2022/12/25 13:59:55;;;;;;;10.37;7.50;;;16.70;24.00;;;;;;4959793;28;20484;-65
2022/12/25 14:02:29;;;;;;;9.90;6.67;;;16.60;24.50;;;;;;4963742;28;20477;-66
2022/12/25 14:04:56;;;;;;;11.20;6.37;;;16.50;25.00;;;;;;4963775;28;20468;-66
2022/12/25 14:07:24;;;;;;;9.50;6.77;;;16.40;25.30;;;;;;4961236;28;20470;-65
2022/12/25 14:09:59;;;;;;;11.90;6.73;;;16.30;25.80;;;;;;4962295;28;21008;-66
2022/12/25 14:12:28;;;;;;;10.30;6.90;;;16.20;26.20;;;;;;4955984;28;20492;-66
2022/12/25 14:14:58;;;;;;;9.70;7.10;;;16.10;26.50;;;;;;4960536;28;20468;-66
2022/12/25 14:17:26;;;;;;;9.10;5.93;;;16.00;26.70;;;;;;4963467;28;20458;-65
2022/12/25 14:19:58;;;;;;;9.00;5.47;;;15.90;27.00;;;;;;4953085;28;20481;-67
2022/12/25 14:22:26;;;;;;;8.43;5.90;;;15.80;27.20;;;;;;4963953;28;20501;-66
2022/12/25 14:24:53;;;;;;;8.83;6.07;;;15.70;27.40;;;;;;4962625;28;20489;-66
2022/12/25 14:27:23;;;;;;;10.10;5.53;;;15.60;27.60;;;;;;4964080;28;20466;-66
2022/12/25 14:29:54;;;;;;;8.13;5.20;;;15.50;27.80;;;;;;4961584;28;20501;-66
2022/12/25 14:32:22;;;;;;;7.70;4.90;;;15.40;27.80;;;;;;4960512;28;20488;-66
2022/12/25 14:34:55;;;;;;;12.47;5.20;;;15.30;28.20;;;;;;4962972;28;20469;-66
2022/12/25 14:37:23;;;;;;;6.97;4.50;;;15.10;28.60;;;;;;4965201;28;20464;-66
2022/12/25 14:39:59;;;;;;;11.90;5.43;;;15.00;28.50;;;;;;4964537;28;20520;-66
2022/12/25 14:42:28;;;;;;;10.40;5.27;;;14.80;28.90;;;;;;4965646;28;20500;-66